createdAt,value
2022-10-03T05:04:31.789Z,93.90
2022-10-03T05:09:47.233Z,93.70
2022-10-03T05:15:07.446Z,93.90
2022-10-03T05:20:25.551Z,93.90
2022-10-03T05:25:41.920Z,93.90
2022-10-03T05:30:53.474Z,93.90
2022-10-03T05:36:12.404Z,93.80
2022-10-03T05:41:26.990Z,94.00
2022-10-03T05:46:42.987Z,94.00
2022-10-03T05:52:04.222Z,94.00
2022-10-03T05:57:30.821Z,93.90
2022-10-03T06:03:00.382Z,93.90
2022-10-03T06:08:51.713Z,93.90
2022-10-03T06:14:29.016Z,93.90
2022-10-03T06:19:48.446Z,93.90
2022-10-03T06:25:40.705Z,93.80
2022-10-03T06:31:04.549Z,93.90
2022-10-03T06:36:28.880Z,93.90
2022-10-03T06:42:08.295Z,93.80
2022-10-03T06:47:30.088Z,93.90
2022-10-03T06:53:03.054Z,93.90
2022-10-03T06:58:35.718Z,94.00
2022-10-03T07:04:25.253Z,94.10
2022-10-03T07:10:02.409Z,94.30
2022-10-03T07:15:57.818Z,94.10
2022-10-03T07:21:26.905Z,94.20
2022-10-03T07:27:02.965Z,94.10
2022-10-03T07:32:30.369Z,94.00
2022-10-03T07:38:29.808Z,94.00
2022-10-03T07:44:04.198Z,93.90
2022-10-03T07:49:29.985Z,93.80
2022-10-03T07:54:53.728Z,93.80
2022-10-03T08:00:24.437Z,93.70
2022-10-03T08:05:45.690Z,94.10
2022-10-03T08:11:31.425Z,94.10
2022-10-03T08:17:09.209Z,94.00
2022-10-03T08:22:21.655Z,94.10
2022-10-03T08:27:47.094Z,94.40
2022-10-03T08:33:29.668Z,94.50
2022-10-03T08:38:51.165Z,94.50
2022-10-03T08:44:28.208Z,94.80
2022-10-03T08:50:09.081Z,94.80
2022-10-03T08:55:46.256Z,95.00
2022-10-03T09:01:12.329Z,95.10
2022-10-03T09:07:18.744Z,95.40
2022-10-03T09:12:42.717Z,95.40
2022-10-03T09:18:28.471Z,95.30
2022-10-03T09:23:57.626Z,95.40
2022-10-03T09:29:33.077Z,95.30
2022-10-03T09:35:00.302Z,95.10
2022-10-03T09:40:53.442Z,95.10
2022-10-03T09:46:46.561Z,95.10
2022-10-03T09:52:08.132Z,95.30
2022-10-03T09:57:52.223Z,95.30
2022-10-03T10:03:44.166Z,95.20
2022-10-03T10:09:22.927Z,95.30
2022-10-03T10:14:48.588Z,95.10
2022-10-03T10:20:11.721Z,95.10
2022-10-03T10:25:35.935Z,95.50
2022-10-03T10:31:29.346Z,95.20
2022-10-03T10:37:19.267Z,94.70
2022-10-03T10:43:15.749Z,94.90
2022-10-03T10:49:16.968Z,94.30
2022-10-03T10:55:03.477Z,93.70
2022-10-03T11:00:27.334Z,93.70
2022-10-03T11:06:00.157Z,93.80
2022-10-03T11:11:31.814Z,93.60
2022-10-03T11:17:21.148Z,93.40
2022-10-03T11:23:21.386Z,93.10
2022-10-03T11:29:02.837Z,92.50
2022-10-03T11:34:39.805Z,91.30
2022-10-03T11:39:50.813Z,90.20
2022-10-03T11:45:00.060Z,89.40
2022-10-03T11:50:29.907Z,86.20
2022-10-03T11:55:39.786Z,85.00
2022-10-03T12:00:47.284Z,85.90
2022-10-03T12:06:17.754Z,87.60
2022-10-03T12:11:28.316Z,86.80
2022-10-03T12:16:41.562Z,85.90
2022-10-03T12:21:54.111Z,86.20
2022-10-03T12:27:11.317Z,86.20
2022-10-03T12:32:32.969Z,86.30
2022-10-03T12:37:48.879Z,85.70
2022-10-03T12:43:08.377Z,86.30
2022-10-03T12:48:44.107Z,85.80
2022-10-03T12:53:58.895Z,84.40
2022-10-03T12:59:20.323Z,84.20
2022-10-03T13:04:35.691Z,82.80
2022-10-03T13:10:03.370Z,83.00
2022-10-03T13:15:43.074Z,81.80
2022-10-03T13:21:01.017Z,81.70
2022-10-03T13:26:14.746Z,79.40
2022-10-03T13:31:25.270Z,76.80
2022-10-03T13:36:38.431Z,74.30
2022-10-03T13:42:00.186Z,73.20
2022-10-03T13:47:16.815Z,71.60
2022-10-03T13:52:27.937Z,70.60
2022-10-03T13:57:38.171Z,69.70
2022-10-03T14:02:51.532Z,69.50
2022-10-03T14:08:02.888Z,68.70
2022-10-03T14:13:19.808Z,69.70
2022-10-03T14:18:36.533Z,68.90
2022-10-03T14:23:46.343Z,67.70
2022-10-03T14:28:57.594Z,67.40
2022-10-03T14:34:10.937Z,68.00
2022-10-03T14:39:29.996Z,68.30
2022-10-03T14:44:40.775Z,68.20
2022-10-03T14:49:57.949Z,68.10
2022-10-03T14:55:14.778Z,69.00
2022-10-03T15:00:27.811Z,68.80
2022-10-03T15:05:36.182Z,69.50
2022-10-03T15:10:41.600Z,70.30
2022-10-03T15:15:48.124Z,70.90
2022-10-03T15:20:55.634Z,71.00
2022-10-03T15:26:01.471Z,71.30
2022-10-03T15:31:10.645Z,71.60
2022-10-03T15:36:21.873Z,71.80
2022-10-03T15:41:36.869Z,71.90
2022-10-03T15:46:45.410Z,71.60
2022-10-03T15:51:49.665Z,71.30
2022-10-03T15:56:57.347Z,71.10
2022-10-03T16:02:07.193Z,71.00
2022-10-03T16:07:14.444Z,71.00
2022-10-03T16:12:47.871Z,70.90
2022-10-03T16:17:55.738Z,71.10
2022-10-03T16:23:02.182Z,71.20
2022-10-03T16:28:12.234Z,71.10
2022-10-03T16:33:19.666Z,71.10
2022-10-03T16:38:25.732Z,70.90
2022-10-03T16:43:33.861Z,70.90
2022-10-03T16:48:55.399Z,70.90
2022-10-03T16:53:59.104Z,70.80
2022-10-03T16:59:07.521Z,70.70
2022-10-03T17:04:19.588Z,70.60
2022-10-03T17:09:29.434Z,70.40
2022-10-03T17:14:41.919Z,70.90
2022-10-03T17:19:51.761Z,70.30
2022-10-03T17:25:02.595Z,69.90
2022-10-03T17:30:28.376Z,70.30
2022-10-03T17:35:42.546Z,70.50
2022-10-03T17:41:01.694Z,70.70
2022-10-03T17:46:13.581Z,71.00
2022-10-03T17:51:31.591Z,71.40
2022-10-03T17:56:36.460Z,71.80
2022-10-03T18:01:45.470Z,72.20
2022-10-03T18:06:52.738Z,72.50
2022-10-03T18:12:05.141Z,72.90
2022-10-03T18:17:17.334Z,73.10
2022-10-03T18:22:24.935Z,73.80
2022-10-03T18:28:07.739Z,74.50
2022-10-03T18:33:17.478Z,75.10
2022-10-03T18:38:26.073Z,75.40
2022-10-03T18:43:34.959Z,75.80
2022-10-03T18:49:02.999Z,75.80
2022-10-03T18:54:25.449Z,76.10
2022-10-03T18:59:36.685Z,76.40
2022-10-03T19:04:45.863Z,76.60
2022-10-03T19:10:14.164Z,77.00
2022-10-03T19:15:22.624Z,77.50
2022-10-03T19:20:32.096Z,77.80
2022-10-03T19:25:39.232Z,78.30
2022-10-03T19:30:44.414Z,78.70
2022-10-03T19:35:52.801Z,79.00
2022-10-03T19:41:00.585Z,79.40
2022-10-03T19:46:59.445Z,79.90
2022-10-03T19:52:18.632Z,80.40
2022-10-03T19:57:28.326Z,80.70
2022-10-03T20:02:32.209Z,81.20
2022-10-03T20:07:45.798Z,81.50
2022-10-03T20:12:52.904Z,81.60
2022-10-03T20:18:01.924Z,81.80
2022-10-03T20:23:11.640Z,82.10
2022-10-03T20:28:23.426Z,82.10
2022-10-03T20:33:31.535Z,82.10
2022-10-03T20:38:56.878Z,82.30
2022-10-03T20:44:11.478Z,82.50
2022-10-03T20:49:23.588Z,82.50
2022-10-03T20:54:34.789Z,82.50
2022-10-03T20:59:45.267Z,83.10
2022-10-03T21:04:55.260Z,82.80
2022-10-03T21:10:10.466Z,83.10
2022-10-03T21:15:21.902Z,83.20
2022-10-03T21:20:32.373Z,83.50
2022-10-03T21:25:39.334Z,83.70
2022-10-03T21:30:58.262Z,83.70
2022-10-03T21:36:10.175Z,84.00
2022-10-03T21:41:34.441Z,84.20
2022-10-03T21:46:43.719Z,84.40
2022-10-03T21:52:09.011Z,84.20
2022-10-03T21:57:21.867Z,84.50
2022-10-03T22:02:34.584Z,84.40
2022-10-03T22:07:40.150Z,84.50
2022-10-03T22:12:49.369Z,84.90
2022-10-03T22:17:58.631Z,85.10
2022-10-03T22:23:18.548Z,85.50
2022-10-03T22:28:33.944Z,86.00
